Ap703 — 9GMH — position and weather

sailwx.info

Track history (hours):
 
Tides and Currents Weather Stations Pressure Air Temp Water Temp Dewpoint Dewpoint Depression Visibility Wind Speed Wind Dir Waves Ship Positions

Ap703

Last reported at 2018-Jun-24 12:24 UTC. Time now 2018-Jun-24 12:52 UTC.
Position N 05°07' W 000°30'.

Length 5 m.

Type: Fishing. MMSI: 627795000.

Date/timePositionNaut miles runAvg speedWind from/ knotsBaromVisibWave heightAir tempDewpointWater temp
2018-Jun-24 12:24N 05°07' W 000°30'1110.2
2018-Jun-24 11:18N 05°15' W 000°37'12 0.5
2018-Jun-23 12:20N 05°21' W 000°26'4 8.9
2018-Jun-23 11:56N 05°23' W 000°23'4 9.4
2018-Jun-23 11:29N 05°25' W 000°20'4 9.5
2018-Jun-23 11:00N 05°27' W 000°16'5 9.5
2018-Jun-23 10:30N 05°29' W 000°11'5 9.4
2018-Jun-23 10:00N 05°30' W 000°06'5 9.1
2018-Jun-23 09:31N 05°31' W 000°02'1 2.4
2018-Jun-23 09:01N 05°32' W 000°02'4 8.0
2018-Jun-23 08:31N 05°34' E 000°01'3 7.0
2018-Jun-23 08:01N 05°38' E 000°02'1 1.1
2018-Jun-23 07:31N 05°38' E 000°01'0 0.1
2018-Jun-23 07:00N 05°38' E 000°01'0 0.0
2018-Jun-23 06:30N 05°38' E 000°01'0 0.0
2018-Jun-23 05:56N 05°38' E 000°01'0 0.0
2018-Jun-23 05:29N 05°38' E 000°01'0 0.0
2018-Jun-23 04:58N 05°38' E 000°01'0 0.0
2018-Jun-23 04:30N 05°38' E 000°01'0 0.0
2018-Jun-23 03:56N 05°38' E 000°01'0 0.0
2018-Jun-23 03:31N 05°38' E 000°01'0 0.0
2018-Jun-23 03:01N 05°38' E 000°01'0 0.0
2018-Jun-23 02:29N 05°38' E 000°01'0 0.0
2018-Jun-23 02:01N 05°38' E 000°01'0 0.0
2018-Jun-23 01:26N 05°38' E 000°01'0 0.0
2018-Jun-23 00:58N 05°38' E 000°01'0 0.0
2018-Jun-23 00:28N 05°38' E 000°01'0 0.0
2018-Jun-22 23:59N 05°38' E 000°01'0 0.0
2018-Jun-22 23:26N 05°38' E 000°01'0 0.0
2018-Jun-22 23:00N 05°38' E 000°01'0 0.0
2018-Jun-22 22:30N 05°38' E 000°01'0 0.0
2018-Jun-22 22:00N 05°38' E 000°01'0 0.0
2018-Jun-22 21:31N 05°38' E 000°01'0 0.0
2018-Jun-22 21:00N 05°38' E 000°01'0 0.0
2018-Jun-22 20:29N 05°38' E 000°01'0 0.0
2018-Jun-22 19:59N 05°38' E 000°01'0 0.0
2018-Jun-22 19:28N 05°38' E 000°01'0 0.0
2018-Jun-22 18:57N 05°38' E 000°01'0 0.0
2018-Jun-22 18:28N 05°38' E 000°01'0 0.0
2018-Jun-22 18:01N 05°38' E 000°01'0 0.0
2018-Jun-22 17:31N 05°38' E 000°01'0 0.0
2018-Jun-22 17:00N 05°38' E 000°01'0 0.0
2018-Jun-22 16:31N 05°38' E 000°01'0 0.0
2018-Jun-22 15:59N 05°38' E 000°01'0 0.0
2018-Jun-22 15:30N 05°38' E 000°01'0 0.0
2018-Jun-22 14:59N 05°38' E 000°01'0 0.0
2018-Jun-22 14:30N 05°38' E 000°01'0 0.0
2018-Jun-22 13:56N 05°38' E 000°01'0 0.0
2018-Jun-22 13:29N 05°38' E 000°01'0 0.0
2018-Jun-22 12:59N 05°38' E 000°01'0 0.0
2018-Jun-22 12:27N 05°38' E 000°01'0 0.0
2018-Jun-22 12:00N 05°38' E 000°01'0 0.0
2018-Jun-22 11:31N 05°38' E 000°01'0 0.0
2018-Jun-22 10:59N 05°38' E 000°01'0 0.0
2018-Jun-22 10:26N 05°38' E 000°01'0 0.0
2018-Jun-22 09:56N 05°38' E 000°01'0 0.0
2018-Jun-22 09:28N 05°38' E 000°01'0 0.0
2018-Jun-22 09:01N 05°38' E 000°01'0 0.0
2018-Jun-22 08:25N 05°38' E 000°01'0 0.0
2018-Jun-22 07:57N 05°38' E 000°01'0 0.0
2018-Jun-22 07:30N 05°38' E 000°01'0 0.0
2018-Jun-22 06:58N 05°38' E 000°01'0 0.0
2018-Jun-22 06:30N 05°38' E 000°01'0 0.0
2018-Jun-22 05:53N 05°38' E 000°01'0 0.0
2018-Jun-22 05:28N 05°38' E 000°01'0 0.0
2018-Jun-22 05:00N 05°38' E 000°01'0 0.0
2018-Jun-22 04:24N 05°38' E 000°01'0 0.0
2018-Jun-22 03:58N 05°38' E 000°01'0 0.0
2018-Jun-22 03:27N 05°38' E 000°01'0 0.0
2018-Jun-22 02:57N 05°38' E 000°01'0 0.0
2018-Jun-22 02:28N 05°38' E 000°01'0 0.0
2018-Jun-22 01:56N 05°38' E 000°01'0 0.0
2018-Jun-22 01:31N 05°38' E 000°01'0 0.0
2018-Jun-22 00:56N 05°38' E 000°01'0 0.0
2018-Jun-22 00:21N 05°38' E 000°01'0 0.0
2018-Jun-22 00:00N 05°38' E 000°01'0 0.0
2018-Jun-21 23:24N 05°38' E 000°01'0 0.0
2018-Jun-21 23:00N 05°38' E 000°01'0 0.0
2018-Jun-21 22:30N 05°38' E 000°01'0 0.0
2018-Jun-21 21:55N 05°38' E 000°01'0 0.0
2018-Jun-21 21:30N 05°38' E 000°01'0 0.0
2018-Jun-21 21:00N 05°38' E 000°01'0 0.0
2018-Jun-21 20:25N 05°38' E 000°01'0 0.0
2018-Jun-21 19:58N 05°38' E 000°01'0 0.0
2018-Jun-21 19:31N 05°38' E 000°01'0 0.0
2018-Jun-21 19:00N 05°38' E 000°01'0 0.0
2018-Jun-21 18:24N 05°38' E 000°01'0 0.0
2018-Jun-21 17:54N 05°38' E 000°01'0 0.0
2018-Jun-21 17:27N 05°38' E 000°01'0 0.0
2018-Jun-21 16:58N 05°38' E 000°01'0 0.0
2018-Jun-21 16:30N 05°38' E 000°01'0 0.0
2018-Jun-21 15:55N 05°38' E 000°01'0 0.0
2018-Jun-21 15:27N 05°38' E 000°01'0 0.0
2018-Jun-21 14:58N 05°38' E 000°01'0 0.0
2018-Jun-21 14:27N 05°38' E 000°01'0 0.0
2018-Jun-21 14:01N 05°38' E 000°01'0 0.0
2018-Jun-21 13:31N 05°38' E 000°01'0 0.0
2018-Jun-21 13:00N 05°38' E 000°01'0 0.0
2018-Jun-21 12:30N 05°38' E 000°01'0 0.0
2018-Jun-21 11:59N 05°38' E 000°01'0 0.0
2018-Jun-21 11:30N 05°38' E 000°01'0 0.0
2018-Jun-21 10:59N 05°38' E 000°01'0 0.0
2018-Jun-21 10:30N 05°38' E 000°01'0 0.0
2018-Jun-21 09:59N 05°38' E 000°01'0 0.0
2018-Jun-21 09:27N 05°38' E 000°01'0 0.0
2018-Jun-21 08:58N 05°38' E 000°01'0 0.0
2018-Jun-21 08:28N 05°38' E 000°01'0 0.0
2018-Jun-21 07:59N 05°38' E 000°01'0 0.0
2018-Jun-21 07:28N 05°38' E 000°01'0 0.0
2018-Jun-21 07:00N 05°38' E 000°01'0 0.0
2018-Jun-21 06:30N 05°38' E 000°01'0 0.0
2018-Jun-21 05:59N 05°38' E 000°01'0 0.0
2018-Jun-21 05:28N 05°38' E 000°01'0 0.0
2018-Jun-21 04:59N 05°38' E 000°01'0 0.0
2018-Jun-21 04:25N 05°38' E 000°01'0 0.0
2018-Jun-21 04:00N 05°38' E 000°01'0 0.0
2018-Jun-21 03:29N 05°38' E 000°01'0 0.0
2018-Jun-21 03:00N 05°38' E 000°01'0 0.0
2018-Jun-21 02:27N 05°38' E 000°01'0 0.0
2018-Jun-21 01:58N 05°38' E 000°01'0 0.0
2018-Jun-21 01:30N 05°38' E 000°01'0 0.0
2018-Jun-21 00:52N 05°38' E 000°01'0 0.0
2018-Jun-21 00:29N 05°38' E 000°01'0 0.0
2018-Jun-21 00:00N 05°38' E 000°01'0 0.0
2018-Jun-20 23:30N 05°38' E 000°01'0 0.0
2018-Jun-20 22:58N 05°38' E 000°01'0 0.0
2018-Jun-20 22:30N 05°38' E 000°01'0 0.0
2018-Jun-20 21:59N 05°38' E 000°01'0 0.0
2018-Jun-20 21:30N 05°38' E 000°01'0 0.0
2018-Jun-20 20:59N 05°38' E 000°01'0 0.0
2018-Jun-20 20:24N 05°38' E 000°01'0 0.0
2018-Jun-20 19:56N 05°38' E 000°01'0 0.0
2018-Jun-20 19:30N 05°38' E 000°01'0 0.0
2018-Jun-20 19:00N 05°38' E 000°01'0 0.0
2018-Jun-20 18:29N 05°38' E 000°01'0 0.0
2018-Jun-20 17:58N 05°38' E 000°01'0 0.0
2018-Jun-20 17:30N 05°38' E 000°01'0 0.0
2018-Jun-20 17:00N 05°38' E 000°01'0 0.0
2018-Jun-20 16:24N 05°38' E 000°01'0 0.0
2018-Jun-20 15:59N 05°38' E 000°01'0 0.0
2018-Jun-20 15:27N 05°38' E 000°01'0 0.0
2018-Jun-20 15:00N 05°38' E 000°01'0 0.0
2018-Jun-20 14:18N 05°38' E 000°01'0 0.0
2018-Jun-20 13:59N 05°38' E 000°01'0 0.0
2018-Jun-20 13:30N 05°38' E 000°01'0 0.0
2018-Jun-20 12:55N 05°38' E 000°01'0 0.0
2018-Jun-20 12:30N 05°38' E 000°01'0 0.0
2018-Jun-20 12:00N 05°38' E 000°01'0 0.0
2018-Jun-20 11:23N 05°38' E 000°01'0 0.0
2018-Jun-20 11:00N 05°38' E 000°01'0 0.0
2018-Jun-20 10:28N 05°38' E 000°01'0 0.0
2018-Jun-20 10:00N 05°38' E 000°01'0 0.0
2018-Jun-20 09:29N 05°38' E 000°01'0 0.0
2018-Jun-20 09:00N 05°38' E 000°01'0 0.0
2018-Jun-20 08:30N 05°38' E 000°01'0 0.0
2018-Jun-20 07:59N 05°38' E 000°01'0 0.0
2018-Jun-20 07:30N 05°38' E 000°01'0 0.0
2018-Jun-20 06:58N 05°38' E 000°01'0 0.0
2018-Jun-20 06:30N 05°38' E 000°01'0 0.0
2018-Jun-20 06:00N 05°38' E 000°01'0 0.0
2018-Jun-20 05:26N 05°38' E 000°01'0 0.0
2018-Jun-20 05:00N 05°38' E 000°01'0 0.0
2018-Jun-20 04:30N 05°38' E 000°01'0 0.0
2018-Jun-20 03:59N 05°38' E 000°01'0 0.0
2018-Jun-20 03:30N 05°38' E 000°01'0 0.0
2018-Jun-20 02:58N 05°38' E 000°01'0 0.0
2018-Jun-20 02:26N 05°38' E 000°01'0 0.0
2018-Jun-20 01:51N 05°38' E 000°01'0 0.0
2018-Jun-20 01:30N 05°38' E 000°01'0 0.0
2018-Jun-20 01:00N 05°38' E 000°01'0 0.0
2018-Jun-20 00:24N 05°38' E 000°01'0 0.0
2018-Jun-19 23:55N 05°38' E 000°01'0 0.0
2018-Jun-19 23:30N 05°38' E 000°01'0 0.0
2018-Jun-19 22:57N 05°38' E 000°01'0 0.0
2018-Jun-19 22:29N 05°38' E 000°01'0 0.0
2018-Jun-19 21:58N 05°38' E 000°01'0 0.0
2018-Jun-19 21:30N 05°38' E 000°01'0 0.0
2018-Jun-19 21:00N 05°38' E 000°01'0 0.0
2018-Jun-19 20:28N 05°38' E 000°01'0 0.0
2018-Jun-19 19:59N 05°38' E 000°01'0 0.0
2018-Jun-19 19:30N 05°38' E 000°01'0 0.0
2018-Jun-19 18:58N 05°38' E 000°01'0 0.0
2018-Jun-19 18:25N 05°38' E 000°01'0 0.0
2018-Jun-19 18:00N 05°38' E 000°01'0 0.0
2018-Jun-19 17:30N 05°38' E 000°01'0 0.0
2018-Jun-19 17:00N 05°38' E 000°01'0 0.0
2018-Jun-19 16:27N 05°38' E 000°01'0 0.0
2018-Jun-19 16:00N 05°38' E 000°01'0 0.0
2018-Jun-19 15:29N 05°38' E 000°01'0 0.0
2018-Jun-19 15:00N 05°38' E 000°01'0 0.0
2018-Jun-19 14:26N 05°38' E 000°01'0 0.0
2018-Jun-19 13:54N 05°38' E 000°01'0 0.0
2018-Jun-19 13:30N 05°38' E 000°01'0 0.0
2018-Jun-19 13:00N 05°38' E 000°01'0 0.0
2018-Jun-19 12:30N 05°38' E 000°01'0 0.0
2018-Jun-19 11:59N 05°38' E 000°01'0 0.0
2018-Jun-19 11:29N 05°38' E 000°01'0 0.0
2018-Jun-19 11:00N 05°38' E 000°01'0 0.0
2018-Jun-19 10:29N 05°38' E 000°01'0 0.0
2018-Jun-19 09:59N 05°38' E 000°01'0 0.0
2018-Jun-19 09:29N 05°38' E 000°01'0 0.0
2018-Jun-19 08:59N 05°38' E 000°01'0 0.0
2018-Jun-19 08:30N 05°38' E 000°01'0 0.0
2018-Jun-19 08:00N 05°38' E 000°01'0 0.0
2018-Jun-19 07:30N 05°38' E 000°01'0 0.0
2018-Jun-19 07:00N 05°38' E 000°01'0 0.0
2018-Jun-19 06:30N 05°38' E 000°01'0 0.0
2018-Jun-19 05:59N 05°38' E 000°01'0 0.0
2018-Jun-19 05:22N 05°38' E 000°01'0 0.0
2018-Jun-19 05:00N 05°38' E 000°01'0 0.0
2018-Jun-19 04:30N 05°38' E 000°01'0 0.0
2018-Jun-19 03:52N 05°38' E 000°01'0 0.0
2018-Jun-19 03:30N 05°38' E 000°01'0 0.0
2018-Jun-19 02:57N 05°38' E 000°01'0 0.0
2018-Jun-19 02:30N 05°38' E 000°01'0 0.0
2018-Jun-19 01:52N 05°38' E 000°01'0 0.0
2018-Jun-19 01:30N 05°38' E 000°01'0 0.0
2018-Jun-19 01:00N 05°38' E 000°01'0 0.0
2018-Jun-19 00:30N 05°38' E 000°01'0 0.0
2018-Jun-19 00:00N 05°38' E 000°01'0 0.0
2018-Jun-18 23:30N 05°38' E 000°01'0 0.0
2018-Jun-18 22:59N 05°38' E 000°01'0 0.0
2018-Jun-18 22:27N 05°38' E 000°01'0 0.0
2018-Jun-18 21:58N 05°38' E 000°01'0 0.0
2018-Jun-18 21:24N 05°38' E 000°01'0 0.0
2018-Jun-18 21:00N 05°38' E 000°01'0 0.0
2018-Jun-18 20:30N 05°38' E 000°01'0 0.0
2018-Jun-18 19:56N 05°38' E 000°01'0 0.0
2018-Jun-18 19:30N 05°38' E 000°01'0 0.0
2018-Jun-18 18:58N 05°38' E 000°01'0 0.0
2018-Jun-18 18:30N 05°38' E 000°01'0 0.0
2018-Jun-18 18:00N 05°38' E 000°01'0 0.0
2018-Jun-18 17:21N 05°38' E 000°01'0 0.0
2018-Jun-18 16:56N 05°38' E 000°01'0 0.0
2018-Jun-18 16:26N 05°38' E 000°01'0 0.0
2018-Jun-18 15:58N 05°38' E 000°01'0 0.0
2018-Jun-18 15:28N 05°38' E 000°01'0 0.0
2018-Jun-18 14:57N 05°38' E 000°01'0 0.0
2018-Jun-18 14:25N 05°38' E 000°01'0 0.0
2018-Jun-18 13:58N 05°38' E 000°01'0 0.0
2018-Jun-18 13:24N 05°38' E 000°01'0 0.0
2018-Jun-18 12:59N 05°38' E 000°01'0 0.0
2018-Jun-18 12:30N 05°38' E 000°01'0 0.0
2018-Jun-18 12:00N 05°38' E 000°01'0 0.0
2018-Jun-18 11:30N 05°38' E 000°01'0 0.0
2018-Jun-18 11:00N 05°38' E 000°01'0 0.0
2018-Jun-18 10:21N 05°38' E 000°01'0 0.0
2018-Jun-18 10:00N 05°38' E 000°01'0 0.0
2018-Jun-18 09:28N 05°38' E 000°01'0 0.0
2018-Jun-18 08:59N 05°38' E 000°01'0 0.0
2018-Jun-18 08:30N 05°38' E 000°01'0 0.0
2018-Jun-18 08:00N 05°38' E 000°01'0 0.0
2018-Jun-18 07:28N 05°38' E 000°01'0 0.0
2018-Jun-18 07:00N 05°38' E 000°01'0 0.0
2018-Jun-18 06:30N 05°38' E 000°01'0 0.0
2018-Jun-18 05:57N 05°38' E 000°01'0 0.0
2018-Jun-18 05:28N 05°38' E 000°01'0 0.0
2018-Jun-18 05:00N 05°38' E 000°01'0 0.0
2018-Jun-18 04:30N 05°38' E 000°01'0 0.0
2018-Jun-18 04:00N 05°38' E 000°01'0 0.0
2018-Jun-18 03:27N 05°38' E 000°01'0 0.0
2018-Jun-18 02:59N 05°38' E 000°01'0 0.0
2018-Jun-18 02:23N 05°38' E 000°01'0 0.0
2018-Jun-18 01:59N 05°38' E 000°01'0 0.0
2018-Jun-18 01:28N 05°38' E 000°01'0 0.0
2018-Jun-18 00:58N 05°38' E 000°01'0 0.0
2018-Jun-18 00:30N 05°38' E 000°01'0 0.0
2018-Jun-18 00:00N 05°38' E 000°01'0 0.0
2018-Jun-17 23:29N 05°38' E 000°01'0 0.0
2018-Jun-17 23:00N 05°38' E 000°01'0 0.0
2018-Jun-17 22:30N 05°38' E 000°01'0 0.0
2018-Jun-17 21:58N 05°38' E 000°01'0 0.0
2018-Jun-17 21:29N 05°38' E 000°01'0 0.0
2018-Jun-17 21:00N 05°38' E 000°01'0 0.0
2018-Jun-17 20:30N 05°38' E 000°01'0 0.0
2018-Jun-17 20:00N 05°38' E 000°01'0 0.0
2018-Jun-17 19:30N 05°38' E 000°01'0 0.0
2018-Jun-17 18:45N 05°38' E 000°01'0 0.0
2018-Jun-17 18:30N 05°38' E 000°01'0 0.0
2018-Jun-17 18:00N 05°38' E 000°01'0 0.0
2018-Jun-17 17:30N 05°38' E 000°01'0 0.0
2018-Jun-17 16:59N 05°38' E 000°01'0 0.0
2018-Jun-17 16:30N 05°38' E 000°01'0 0.0
2018-Jun-17 15:59N 05°38' E 000°01'0 0.0
2018-Jun-17 15:26N 05°38' E 000°01'0 0.0
2018-Jun-17 14:59N 05°38' E 000°01'0 0.0
2018-Jun-17 14:25N 05°38' E 000°01'0 0.0
2018-Jun-17 13:58N 05°38' E 000°01'0 0.0
2018-Jun-17 13:28N 05°38' E 000°01'0 0.0
2018-Jun-17 13:00N 05°38' E 000°01'0 0.0
2018-Jun-17 12:24N 05°38' E 000°01'0 0.0
2018-Jun-17 11:59N 05°38' E 000°01'0 0.0
2018-Jun-17 11:23N 05°38' E 000°01'0 0.0
2018-Jun-17 10:56N 05°38' E 000°01'0 0.0
2018-Jun-17 10:26N 05°38' E 000°01'0 0.0
2018-Jun-17 09:57N 05°38' E 000°01'0 0.0
2018-Jun-17 09:30N 05°38' E 000°01'0 0.0
2018-Jun-17 08:53N 05°38' E 000°01'0 0.0
2018-Jun-17 08:22N 05°38' E 000°01'0 0.0
2018-Jun-17 08:00N 05°38' E 000°01'0 0.0
2018-Jun-17 07:29N 05°38' E 000°01'0 0.9
2018-Jun-17 07:00N 05°38' E 000°01'1 1.9
2018-Jun-17 06:30N 05°37' E 000°02'0 0.6
2018-Jun-17 06:00N 05°37' E 000°02'3 5.5
2018-Jun-17 05:30N 05°36' E 000°05'3 6.1
2018-Jun-17 05:00N 05°35' E 000°08'1 1.8
2018-Jun-17 04:30N 05°35' E 000°08'3 6.0
2018-Jun-17 03:59N 05°34' E 000°11'3 6.0
2018-Jun-17 03:30N 05°33' E 000°14'3 6.1
2018-Jun-17 03:00N 05°32' E 000°17'3 6.1
2018-Jun-17 02:30N 05°31' E 000°20'5 0.5
2018-Jun-16 16:09N 05°28' E 000°24'0 0.8
2018-Jun-16 15:58N 05°28' E 000°24'2 5.0
2018-Jun-16 15:30N 05°27' E 000°21'510.1
2018-Jun-16 15:00N 05°26' E 000°16'1 2.0
2018-Jun-16 14:30N 05°26' E 000°15'510.2
2018-Jun-16 13:59N 05°23' E 000°11'1 2.9
2018-Jun-16 13:30N 05°23' E 000°09'2 4.7
2018-Jun-16 13:00N 05°22' E 000°07'2 3.1
2018-Jun-16 12:30N 05°21' E 000°06'4 7.9
2018-Jun-16 12:00N 05°23' E 000°02'2 3.4
2018-Jun-16 11:30N 05°24' E 000°01'4 7.2
2018-Jun-16 11:00N 05°23' W 000°02'510.0
2018-Jun-16 10:30N 05°21' W 000°07'510.1
2018-Jun-16 09:59N 05°20' W 000°12'12 1.3
2018-Jun-16 00:33N 05°21' W 000°25'0 0.0
2018-Jun-16 00:10N 05°21' W 000°25'0 0.0
2018-Jun-15 23:27N 05°21' W 000°25'8 5.3
2018-Jun-15 22:00N 05°21' W 000°17'26 4.8
2018-Jun-15 16:37N 05°22' E 000°09'1 8.7
2018-Jun-15 16:30N 05°22' E 000°10'2 4.7
2018-Jun-15 16:00N 05°22' E 000°13'1 2.7
2018-Jun-15 15:30N 05°21' E 000°12'3 5.3
2018-Jun-15 15:00N 05°20' E 000°14'4 8.9
2018-Jun-15 14:30N 05°20' E 000°19'8 0.6
2018-Jun-14 23:57N 05°27' E 000°23'4 8.8
2018-Jun-14 23:27N 05°26' E 000°19'4 8.7
2018-Jun-14 23:00N 05°25' E 000°15'4 8.7
2018-Jun-14 22:30N 05°25' E 000°11'2 4.5
2018-Jun-14 21:57N 05°24' E 000°09'0 0.4
2018-Jun-14 21:30N 05°24' E 000°09'4 8.4
2018-Jun-14 21:00N 05°28' E 000°09'2 4.6
2018-Jun-14 20:30N 05°30' E 000°09'5 9.5
2018-Jun-14 20:00N 05°32' E 000°14'3 5.7
2018-Jun-14 19:30N 05°32' E 000°17'12 4.4
2018-Jun-14 16:41N 05°20' E 000°16'1 4.4
2018-Jun-14 16:29N 05°20' E 000°15'3 5.1
2018-Jun-14 15:58N 05°22' E 000°17'4 6.4
2018-Jun-14 15:25N 05°25' E 000°18'3 7.9
2018-Jun-14 14:59N 05°28' E 000°17'4 7.2
2018-Jun-14 14:28N 05°32' E 000°16'2 4.9
2018-Jun-14 14:00N 05°33' E 000°14'3 6.5
2018-Jun-14 13:29N 05°30' E 000°12'2 5.1
2018-Jun-14 13:00N 05°27' E 000°12'3 6.5
2018-Jun-14 12:30N 05°24' E 000°11'  
Track history (hours):
 
Tides and Currents Weather Stations Pressure Air Temp Water Temp Dewpoint Dewpoint Depression Visibility Wind Speed Wind Dir Waves Ship Positions

Ap703

Last reported at 2018-Jun-24 12:24 UTC. Time now 2018-Jun-24 12:52 UTC.
Position N 05°07' W 000°30'.

Length 5 m.

Type: Fishing. MMSI: 627795000.

Date/timePositionNaut miles runAvg speedWind from/ knotsBaromVisibWave heightAir tempDewpointWater temp
2018-Jun-24 12:24N 05°07' W 000°30'1110.2
2018-Jun-24 11:18N 05°15' W 000°37'12 0.5
2018-Jun-23 12:20N 05°21' W 000°26'4 8.9
2018-Jun-23 11:56N 05°23' W 000°23'4 9.4
2018-Jun-23 11:29N 05°25' W 000°20'4 9.5
2018-Jun-23 11:00N 05°27' W 000°16'5 9.5
2018-Jun-23 10:30N 05°29' W 000°11'5 9.4
2018-Jun-23 10:00N 05°30' W 000°06'5 9.1
2018-Jun-23 09:31N 05°31' W 000°02'1 2.4
2018-Jun-23 09:01N 05°32' W 000°02'4 8.0
2018-Jun-23 08:31N 05°34' E 000°01'3 7.0
2018-Jun-23 08:01N 05°38' E 000°02'1 1.1
2018-Jun-23 07:31N 05°38' E 000°01'0 0.1
2018-Jun-23 07:00N 05°38' E 000°01'0 0.0
2018-Jun-23 06:30N 05°38' E 000°01'0 0.0
2018-Jun-23 05:56N 05°38' E 000°01'0 0.0
2018-Jun-23 05:29N 05°38' E 000°01'0 0.0
2018-Jun-23 04:58N 05°38' E 000°01'0 0.0
2018-Jun-23 04:30N 05°38' E 000°01'0 0.0
2018-Jun-23 03:56N 05°38' E 000°01'0 0.0
2018-Jun-23 03:31N 05°38' E 000°01'0 0.0
2018-Jun-23 03:01N 05°38' E 000°01'0 0.0
2018-Jun-23 02:29N 05°38' E 000°01'0 0.0
2018-Jun-23 02:01N 05°38' E 000°01'0 0.0
2018-Jun-23 01:26N 05°38' E 000°01'0 0.0
2018-Jun-23 00:58N 05°38' E 000°01'0 0.0
2018-Jun-23 00:28N 05°38' E 000°01'0 0.0
2018-Jun-22 23:59N 05°38' E 000°01'0 0.0
2018-Jun-22 23:26N 05°38' E 000°01'0 0.0
2018-Jun-22 23:00N 05°38' E 000°01'0 0.0
2018-Jun-22 22:30N 05°38' E 000°01'0 0.0
2018-Jun-22 22:00N 05°38' E 000°01'0 0.0
2018-Jun-22 21:31N 05°38' E 000°01'0 0.0
2018-Jun-22 21:00N 05°38' E 000°01'0 0.0
2018-Jun-22 20:29N 05°38' E 000°01'0 0.0
2018-Jun-22 19:59N 05°38' E 000°01'0 0.0
2018-Jun-22 19:28N 05°38' E 000°01'0 0.0
2018-Jun-22 18:57N 05°38' E 000°01'0 0.0
2018-Jun-22 18:28N 05°38' E 000°01'0 0.0
2018-Jun-22 18:01N 05°38' E 000°01'0 0.0
2018-Jun-22 17:31N 05°38' E 000°01'0 0.0
2018-Jun-22 17:00N 05°38' E 000°01'0 0.0
2018-Jun-22 16:31N 05°38' E 000°01'0 0.0
2018-Jun-22 15:59N 05°38' E 000°01'0 0.0
2018-Jun-22 15:30N 05°38' E 000°01'0 0.0
2018-Jun-22 14:59N 05°38' E 000°01'0 0.0
2018-Jun-22 14:30N 05°38' E 000°01'0 0.0
2018-Jun-22 13:56N 05°38' E 000°01'0 0.0
2018-Jun-22 13:29N 05°38' E 000°01'0 0.0
2018-Jun-22 12:59N 05°38' E 000°01'0 0.0
2018-Jun-22 12:27N 05°38' E 000°01'0 0.0
2018-Jun-22 12:00N 05°38' E 000°01'0 0.0
2018-Jun-22 11:31N 05°38' E 000°01'0 0.0
2018-Jun-22 10:59N 05°38' E 000°01'0 0.0
2018-Jun-22 10:26N 05°38' E 000°01'0 0.0
2018-Jun-22 09:56N 05°38' E 000°01'0 0.0
2018-Jun-22 09:28N 05°38' E 000°01'0 0.0
2018-Jun-22 09:01N 05°38' E 000°01'0 0.0
2018-Jun-22 08:25N 05°38' E 000°01'0 0.0
2018-Jun-22 07:57N 05°38' E 000°01'0 0.0
2018-Jun-22 07:30N 05°38' E 000°01'0 0.0
2018-Jun-22 06:58N 05°38' E 000°01'0 0.0
2018-Jun-22 06:30N 05°38' E 000°01'0 0.0
2018-Jun-22 05:53N 05°38' E 000°01'0 0.0
2018-Jun-22 05:28N 05°38' E 000°01'0 0.0
2018-Jun-22 05:00N 05°38' E 000°01'0 0.0
2018-Jun-22 04:24N 05°38' E 000°01'0 0.0
2018-Jun-22 03:58N 05°38' E 000°01'0 0.0
2018-Jun-22 03:27N 05°38' E 000°01'0 0.0
2018-Jun-22 02:57N 05°38' E 000°01'0 0.0
2018-Jun-22 02:28N 05°38' E 000°01'0 0.0
2018-Jun-22 01:56N 05°38' E 000°01'0 0.0
2018-Jun-22 01:31N 05°38' E 000°01'0 0.0
2018-Jun-22 00:56N 05°38' E 000°01'0 0.0
2018-Jun-22 00:21N 05°38' E 000°01'0 0.0
2018-Jun-22 00:00N 05°38' E 000°01'0 0.0
2018-Jun-21 23:24N 05°38' E 000°01'0 0.0
2018-Jun-21 23:00N 05°38' E 000°01'0 0.0
2018-Jun-21 22:30N 05°38' E 000°01'0 0.0
2018-Jun-21 21:55N 05°38' E 000°01'0 0.0
2018-Jun-21 21:30N 05°38' E 000°01'0 0.0
2018-Jun-21 21:00N 05°38' E 000°01'0 0.0
2018-Jun-21 20:25N 05°38' E 000°01'0 0.0
2018-Jun-21 19:58N 05°38' E 000°01'0 0.0
2018-Jun-21 19:31N 05°38' E 000°01'0 0.0
2018-Jun-21 19:00N 05°38' E 000°01'0 0.0
2018-Jun-21 18:24N 05°38' E 000°01'0 0.0
2018-Jun-21 17:54N 05°38' E 000°01'0 0.0
2018-Jun-21 17:27N 05°38' E 000°01'0 0.0
2018-Jun-21 16:58N 05°38' E 000°01'0 0.0
2018-Jun-21 16:30N 05°38' E 000°01'0 0.0
2018-Jun-21 15:55N 05°38' E 000°01'0 0.0
2018-Jun-21 15:27N 05°38' E 000°01'0 0.0
2018-Jun-21 14:58N 05°38' E 000°01'0 0.0
2018-Jun-21 14:27N 05°38' E 000°01'0 0.0
2018-Jun-21 14:01N 05°38' E 000°01'0 0.0
2018-Jun-21 13:31N 05°38' E 000°01'0 0.0
2018-Jun-21 13:00N 05°38' E 000°01'0 0.0
2018-Jun-21 12:30N 05°38' E 000°01'0 0.0
2018-Jun-21 11:59N 05°38' E 000°01'0 0.0
2018-Jun-21 11:30N 05°38' E 000°01'0 0.0
2018-Jun-21 10:59N 05°38' E 000°01'0 0.0
2018-Jun-21 10:30N 05°38' E 000°01'0 0.0
2018-Jun-21 09:59N 05°38' E 000°01'0 0.0
2018-Jun-21 09:27N 05°38' E 000°01'0 0.0
2018-Jun-21 08:58N 05°38' E 000°01'0 0.0
2018-Jun-21 08:28N 05°38' E 000°01'0 0.0
2018-Jun-21 07:59N 05°38' E 000°01'0 0.0
2018-Jun-21 07:28N 05°38' E 000°01'0 0.0
2018-Jun-21 07:00N 05°38' E 000°01'0 0.0
2018-Jun-21 06:30N 05°38' E 000°01'0 0.0
2018-Jun-21 05:59N 05°38' E 000°01'0 0.0
2018-Jun-21 05:28N 05°38' E 000°01'0 0.0
2018-Jun-21 04:59N 05°38' E 000°01'0 0.0
2018-Jun-21 04:25N 05°38' E 000°01'0 0.0
2018-Jun-21 04:00N 05°38' E 000°01'0 0.0
2018-Jun-21 03:29N 05°38' E 000°01'0 0.0
2018-Jun-21 03:00N 05°38' E 000°01'0 0.0
2018-Jun-21 02:27N 05°38' E 000°01'0 0.0
2018-Jun-21 01:58N 05°38' E 000°01'0 0.0
2018-Jun-21 01:30N 05°38' E 000°01'0 0.0
2018-Jun-21 00:52N 05°38' E 000°01'0 0.0
2018-Jun-21 00:29N 05°38' E 000°01'0 0.0
2018-Jun-21 00:00N 05°38' E 000°01'0 0.0
2018-Jun-20 23:30N 05°38' E 000°01'0 0.0
2018-Jun-20 22:58N 05°38' E 000°01'0 0.0
2018-Jun-20 22:30N 05°38' E 000°01'0 0.0
2018-Jun-20 21:59N 05°38' E 000°01'0 0.0
2018-Jun-20 21:30N 05°38' E 000°01'0 0.0
2018-Jun-20 20:59N 05°38' E 000°01'0 0.0
2018-Jun-20 20:24N 05°38' E 000°01'0 0.0
2018-Jun-20 19:56N 05°38' E 000°01'0 0.0
2018-Jun-20 19:30N 05°38' E 000°01'0 0.0
2018-Jun-20 19:00N 05°38' E 000°01'0 0.0
2018-Jun-20 18:29N 05°38' E 000°01'0 0.0
2018-Jun-20 17:58N 05°38' E 000°01'0 0.0
2018-Jun-20 17:30N 05°38' E 000°01'0 0.0
2018-Jun-20 17:00N 05°38' E 000°01'0 0.0
2018-Jun-20 16:24N 05°38' E 000°01'0 0.0
2018-Jun-20 15:59N 05°38' E 000°01'0 0.0
2018-Jun-20 15:27N 05°38' E 000°01'0 0.0
2018-Jun-20 15:00N 05°38' E 000°01'0 0.0
2018-Jun-20 14:18N 05°38' E 000°01'0 0.0
2018-Jun-20 13:59N 05°38' E 000°01'0 0.0
2018-Jun-20 13:30N 05°38' E 000°01'0 0.0
2018-Jun-20 12:55N 05°38' E 000°01'0 0.0
2018-Jun-20 12:30N 05°38' E 000°01'0 0.0
2018-Jun-20 12:00N 05°38' E 000°01'0 0.0
2018-Jun-20 11:23N 05°38' E 000°01'0 0.0
2018-Jun-20 11:00N 05°38' E 000°01'0 0.0
2018-Jun-20 10:28N 05°38' E 000°01'0 0.0
2018-Jun-20 10:00N 05°38' E 000°01'0 0.0
2018-Jun-20 09:29N 05°38' E 000°01'0 0.0
2018-Jun-20 09:00N 05°38' E 000°01'0 0.0
2018-Jun-20 08:30N 05°38' E 000°01'0 0.0
2018-Jun-20 07:59N 05°38' E 000°01'0 0.0
2018-Jun-20 07:30N 05°38' E 000°01'0 0.0
2018-Jun-20 06:58N 05°38' E 000°01'0 0.0
2018-Jun-20 06:30N 05°38' E 000°01'0 0.0
2018-Jun-20 06:00N 05°38' E 000°01'0 0.0
2018-Jun-20 05:26N 05°38' E 000°01'0 0.0
2018-Jun-20 05:00N 05°38' E 000°01'0 0.0
2018-Jun-20 04:30N 05°38' E 000°01'0 0.0
2018-Jun-20 03:59N 05°38' E 000°01'0 0.0
2018-Jun-20 03:30N 05°38' E 000°01'0 0.0
2018-Jun-20 02:58N 05°38' E 000°01'0 0.0
2018-Jun-20 02:26N 05°38' E 000°01'0 0.0
2018-Jun-20 01:51N 05°38' E 000°01'0 0.0
2018-Jun-20 01:30N 05°38' E 000°01'0 0.0
2018-Jun-20 01:00N 05°38' E 000°01'0 0.0
2018-Jun-20 00:24N 05°38' E 000°01'0 0.0
2018-Jun-19 23:55N 05°38' E 000°01'0 0.0
2018-Jun-19 23:30N 05°38' E 000°01'0 0.0
2018-Jun-19 22:57N 05°38' E 000°01'0 0.0
2018-Jun-19 22:29N 05°38' E 000°01'0 0.0
2018-Jun-19 21:58N 05°38' E 000°01'0 0.0
2018-Jun-19 21:30N 05°38' E 000°01'0 0.0
2018-Jun-19 21:00N 05°38' E 000°01'0 0.0
2018-Jun-19 20:28N 05°38' E 000°01'0 0.0
2018-Jun-19 19:59N 05°38' E 000°01'0 0.0
2018-Jun-19 19:30N 05°38' E 000°01'0 0.0
2018-Jun-19 18:58N 05°38' E 000°01'0 0.0
2018-Jun-19 18:25N 05°38' E 000°01'0 0.0
2018-Jun-19 18:00N 05°38' E 000°01'0 0.0
2018-Jun-19 17:30N 05°38' E 000°01'0 0.0
2018-Jun-19 17:00N 05°38' E 000°01'0 0.0
2018-Jun-19 16:27N 05°38' E 000°01'0 0.0
2018-Jun-19 16:00N 05°38' E 000°01'0 0.0
2018-Jun-19 15:29N 05°38' E 000°01'0 0.0
2018-Jun-19 15:00N 05°38' E 000°01'0 0.0
2018-Jun-19 14:26N 05°38' E 000°01'0 0.0
2018-Jun-19 13:54N 05°38' E 000°01'0 0.0
2018-Jun-19 13:30N 05°38' E 000°01'0 0.0
2018-Jun-19 13:00N 05°38' E 000°01'0 0.0
2018-Jun-19 12:30N 05°38' E 000°01'0 0.0
2018-Jun-19 11:59N 05°38' E 000°01'0 0.0
2018-Jun-19 11:29N 05°38' E 000°01'0 0.0
2018-Jun-19 11:00N 05°38' E 000°01'0 0.0
2018-Jun-19 10:29N 05°38' E 000°01'0 0.0
2018-Jun-19 09:59N 05°38' E 000°01'0 0.0
2018-Jun-19 09:29N 05°38' E 000°01'0 0.0
2018-Jun-19 08:59N 05°38' E 000°01'0 0.0
2018-Jun-19 08:30N 05°38' E 000°01'0 0.0
2018-Jun-19 08:00N 05°38' E 000°01'0 0.0
2018-Jun-19 07:30N 05°38' E 000°01'0 0.0
2018-Jun-19 07:00N 05°38' E 000°01'0 0.0
2018-Jun-19 06:30N 05°38' E 000°01'0 0.0
2018-Jun-19 05:59N 05°38' E 000°01'0 0.0
2018-Jun-19 05:22N 05°38' E 000°01'0 0.0
2018-Jun-19 05:00N 05°38' E 000°01'0 0.0
2018-Jun-19 04:30N 05°38' E 000°01'0 0.0
2018-Jun-19 03:52N 05°38' E 000°01'0 0.0
2018-Jun-19 03:30N 05°38' E 000°01'0 0.0
2018-Jun-19 02:57N 05°38' E 000°01'0 0.0
2018-Jun-19 02:30N 05°38' E 000°01'0 0.0
2018-Jun-19 01:52N 05°38' E 000°01'0 0.0
2018-Jun-19 01:30N 05°38' E 000°01'0 0.0
2018-Jun-19 01:00N 05°38' E 000°01'0 0.0
2018-Jun-19 00:30N 05°38' E 000°01'0 0.0
2018-Jun-19 00:00N 05°38' E 000°01'0 0.0
2018-Jun-18 23:30N 05°38' E 000°01'0 0.0
2018-Jun-18 22:59N 05°38' E 000°01'0 0.0
2018-Jun-18 22:27N 05°38' E 000°01'0 0.0
2018-Jun-18 21:58N 05°38' E 000°01'0 0.0
2018-Jun-18 21:24N 05°38' E 000°01'0 0.0
2018-Jun-18 21:00N 05°38' E 000°01'0 0.0
2018-Jun-18 20:30N 05°38' E 000°01'0 0.0
2018-Jun-18 19:56N 05°38' E 000°01'0 0.0
2018-Jun-18 19:30N 05°38' E 000°01'0 0.0
2018-Jun-18 18:58N 05°38' E 000°01'0 0.0
2018-Jun-18 18:30N 05°38' E 000°01'0 0.0
2018-Jun-18 18:00N 05°38' E 000°01'0 0.0
2018-Jun-18 17:21N 05°38' E 000°01'0 0.0
2018-Jun-18 16:56N 05°38' E 000°01'0 0.0
2018-Jun-18 16:26N 05°38' E 000°01'0 0.0
2018-Jun-18 15:58N 05°38' E 000°01'0 0.0
2018-Jun-18 15:28N 05°38' E 000°01'0 0.0
2018-Jun-18 14:57N 05°38' E 000°01'0 0.0
2018-Jun-18 14:25N 05°38' E 000°01'0 0.0
2018-Jun-18 13:58N 05°38' E 000°01'0 0.0
2018-Jun-18 13:24N 05°38' E 000°01'0 0.0
2018-Jun-18 12:59N 05°38' E 000°01'0 0.0
2018-Jun-18 12:30N 05°38' E 000°01'0 0.0
2018-Jun-18 12:00N 05°38' E 000°01'0 0.0
2018-Jun-18 11:30N 05°38' E 000°01'0 0.0
2018-Jun-18 11:00N 05°38' E 000°01'0 0.0
2018-Jun-18 10:21N 05°38' E 000°01'0 0.0
2018-Jun-18 10:00N 05°38' E 000°01'0 0.0
2018-Jun-18 09:28N 05°38' E 000°01'0 0.0
2018-Jun-18 08:59N 05°38' E 000°01'0 0.0
2018-Jun-18 08:30N 05°38' E 000°01'0 0.0
2018-Jun-18 08:00N 05°38' E 000°01'0 0.0
2018-Jun-18 07:28N 05°38' E 000°01'0 0.0
2018-Jun-18 07:00N 05°38' E 000°01'0 0.0
2018-Jun-18 06:30N 05°38' E 000°01'0 0.0
2018-Jun-18 05:57N 05°38' E 000°01'0 0.0
2018-Jun-18 05:28N 05°38' E 000°01'0 0.0
2018-Jun-18 05:00N 05°38' E 000°01'0 0.0
2018-Jun-18 04:30N 05°38' E 000°01'0 0.0
2018-Jun-18 04:00N 05°38' E 000°01'0 0.0
2018-Jun-18 03:27N 05°38' E 000°01'0 0.0
2018-Jun-18 02:59N 05°38' E 000°01'0 0.0
2018-Jun-18 02:23N 05°38' E 000°01'0 0.0
2018-Jun-18 01:59N 05°38' E 000°01'0 0.0
2018-Jun-18 01:28N 05°38' E 000°01'0 0.0
2018-Jun-18 00:58N 05°38' E 000°01'0 0.0
2018-Jun-18 00:30N 05°38' E 000°01'0 0.0
2018-Jun-18 00:00N 05°38' E 000°01'0 0.0
2018-Jun-17 23:29N 05°38' E 000°01'0 0.0
2018-Jun-17 23:00N 05°38' E 000°01'0 0.0
2018-Jun-17 22:30N 05°38' E 000°01'0 0.0
2018-Jun-17 21:58N 05°38' E 000°01'0 0.0
2018-Jun-17 21:29N 05°38' E 000°01'0 0.0
2018-Jun-17 21:00N 05°38' E 000°01'0 0.0
2018-Jun-17 20:30N 05°38' E 000°01'0 0.0
2018-Jun-17 20:00N 05°38' E 000°01'0 0.0
2018-Jun-17 19:30N 05°38' E 000°01'0 0.0
2018-Jun-17 18:45N 05°38' E 000°01'0 0.0
2018-Jun-17 18:30N 05°38' E 000°01'0 0.0
2018-Jun-17 18:00N 05°38' E 000°01'0 0.0
2018-Jun-17 17:30N 05°38' E 000°01'0 0.0
2018-Jun-17 16:59N 05°38' E 000°01'0 0.0
2018-Jun-17 16:30N 05°38' E 000°01'0 0.0
2018-Jun-17 15:59N 05°38' E 000°01'0 0.0
2018-Jun-17 15:26N 05°38' E 000°01'0 0.0
2018-Jun-17 14:59N 05°38' E 000°01'0 0.0
2018-Jun-17 14:25N 05°38' E 000°01'0 0.0
2018-Jun-17 13:58N 05°38' E 000°01'0 0.0
2018-Jun-17 13:28N 05°38' E 000°01'0 0.0
2018-Jun-17 13:00N 05°38' E 000°01'0 0.0
2018-Jun-17 12:24N 05°38' E 000°01'0 0.0
2018-Jun-17 11:59N 05°38' E 000°01'0 0.0
2018-Jun-17 11:23N 05°38' E 000°01'0 0.0
2018-Jun-17 10:56N 05°38' E 000°01'0 0.0
2018-Jun-17 10:26N 05°38' E 000°01'0 0.0
2018-Jun-17 09:57N 05°38' E 000°01'0 0.0
2018-Jun-17 09:30N 05°38' E 000°01'0 0.0
2018-Jun-17 08:53N 05°38' E 000°01'0 0.0
2018-Jun-17 08:22N 05°38' E 000°01'0 0.0
2018-Jun-17 08:00N 05°38' E 000°01'0 0.0
2018-Jun-17 07:29N 05°38' E 000°01'0 0.9
2018-Jun-17 07:00N 05°38' E 000°01'1 1.9
2018-Jun-17 06:30N 05°37' E 000°02'0 0.6
2018-Jun-17 06:00N 05°37' E 000°02'3 5.5
2018-Jun-17 05:30N 05°36' E 000°05'3 6.1
2018-Jun-17 05:00N 05°35' E 000°08'1 1.8
2018-Jun-17 04:30N 05°35' E 000°08'3 6.0
2018-Jun-17 03:59N 05°34' E 000°11'3 6.0
2018-Jun-17 03:30N 05°33' E 000°14'3 6.1
2018-Jun-17 03:00N 05°32' E 000°17'3 6.1
2018-Jun-17 02:30N 05°31' E 000°20'5 0.5
2018-Jun-16 16:09N 05°28' E 000°24'0 0.8
2018-Jun-16 15:58N 05°28' E 000°24'2 5.0
2018-Jun-16 15:30N 05°27' E 000°21'510.1
2018-Jun-16 15:00N 05°26' E 000°16'1 2.0
2018-Jun-16 14:30N 05°26' E 000°15'510.2
2018-Jun-16 13:59N 05°23' E 000°11'1 2.9
2018-Jun-16 13:30N 05°23' E 000°09'2 4.7
2018-Jun-16 13:00N 05°22' E 000°07'2 3.1
2018-Jun-16 12:30N 05°21' E 000°06'4 7.9
2018-Jun-16 12:00N 05°23' E 000°02'2 3.4
2018-Jun-16 11:30N 05°24' E 000°01'4 7.2
2018-Jun-16 11:00N 05°23' W 000°02'510.0
2018-Jun-16 10:30N 05°21' W 000°07'510.1
2018-Jun-16 09:59N 05°20' W 000°12'12 1.3
2018-Jun-16 00:33N 05°21' W 000°25'0 0.0
2018-Jun-16 00:10N 05°21' W 000°25'0 0.0
2018-Jun-15 23:27N 05°21' W 000°25'8 5.3
2018-Jun-15 22:00N 05°21' W 000°17'26 4.8
2018-Jun-15 16:37N 05°22' E 000°09'1 8.7
2018-Jun-15 16:30N 05°22' E 000°10'2 4.7
2018-Jun-15 16:00N 05°22' E 000°13'1 2.7
2018-Jun-15 15:30N 05°21' E 000°12'3 5.3
2018-Jun-15 15:00N 05°20' E 000°14'4 8.9
2018-Jun-15 14:30N 05°20' E 000°19'8 0.6
2018-Jun-14 23:57N 05°27' E 000°23'4 8.8
2018-Jun-14 23:27N 05°26' E 000°19'4 8.7
2018-Jun-14 23:00N 05°25' E 000°15'4 8.7
2018-Jun-14 22:30N 05°25' E 000°11'2 4.5
2018-Jun-14 21:57N 05°24' E 000°09'0 0.4
2018-Jun-14 21:30N 05°24' E 000°09'4 8.4
2018-Jun-14 21:00N 05°28' E 000°09'2 4.6
2018-Jun-14 20:30N 05°30' E 000°09'5 9.5
2018-Jun-14 20:00N 05°32' E 000°14'3 5.7
2018-Jun-14 19:30N 05°32' E 000°17'12 4.4
2018-Jun-14 16:41N 05°20' E 000°16'1 4.4
2018-Jun-14 16:29N 05°20' E 000°15'3 5.1
2018-Jun-14 15:58N 05°22' E 000°17'4 6.4
2018-Jun-14 15:25N 05°25' E 000°18'3 7.9
2018-Jun-14 14:59N 05°28' E 000°17'4 7.2
2018-Jun-14 14:28N 05°32' E 000°16'2 4.9
2018-Jun-14 14:00N 05°33' E 000°14'3 6.5
2018-Jun-14 13:29N 05°30' E 000°12'2 5.1
2018-Jun-14 13:00N 05°27' E 000°12'3 6.5
2018-Jun-14 12:30N 05°24' E 000°11'  

Dump ship's entire track history